Daihatsumaru — JD2764 — position and weather

sailwx.info

Track history (hours):
 
Tides and Currents Weather Stations Pressure Air Temp Water Temp Dewpoint Dewpoint Depression Visibility Wind Speed Wind Dir Waves Ship Positions

Daihatsumaru

Last reported at 2015-Mar-27 23:33 UTC. Time now 2015-Mar-28 00:32 UTC.
Position N 34°41' E 135°23'.

Length 106 m; draft 4.5 m.

Type: Cargo ship. MMSI: 431000701.

Date/timePositionNaut miles runAvg speedWind from/ knotsBaromVisibWave heightAir tempDewpointWater temp
2015-Mar-27 23:33N 34°41' E 135°23'1 0.9
2015-Mar-27 22:33N 34°41' E 135°22'2 1.5
2015-Mar-27 21:30N 34°40' E 135°21'2 1.8
2015-Mar-27 20:34N 34°39' E 135°20'1413.7
2015-Mar-27 19:34N 34°35' E 135°04'1313.1
2015-Mar-27 18:32N 34°33' E 134°48'4 0.1
2015-Mar-26 04:15N 34°35' E 134°51'1015.0
2015-Mar-26 03:33N 34°36' E 135°04'1514.6
2015-Mar-26 02:33N 34°40' E 135°21'2 2.1
2015-Mar-26 01:23N 34°41' E 135°23'0 0.0
2015-Mar-26 00:05N 34°41' E 135°23'0 0.0
2015-Mar-25 23:29N 34°41' E 135°23'1 1.3
2015-Mar-25 22:32N 34°41' E 135°22'1 0.7
2015-Mar-25 21:18N 34°40' E 135°21'2 2.0
2015-Mar-25 20:33N 34°39' E 135°20'1414.1
2015-Mar-25 19:33N 34°36' E 135°03'1514.2
2015-Mar-25 18:31N 34°32' E 134°46'14 0.4
2015-Mar-24 04:26N 34°37' E 135°01'1213.7
2015-Mar-24 03:33N 34°37' E 135°16'7 6.7
2015-Mar-24 02:27N 34°41' E 135°23'0 0.0
2015-Mar-24 01:27N 34°41' E 135°23'0 0.0
2015-Mar-24 00:33N 34°41' E 135°23'0 0.0
2015-Mar-23 23:33N 34°41' E 135°23'1 1.4
2015-Mar-23 22:33N 34°40' E 135°22'1 0.9
2015-Mar-23 21:33N 34°40' E 135°21'0 0.0
2015-Mar-23 20:34N 34°40' E 135°21'6 5.7
2015-Mar-23 19:33N 34°36' E 135°16'1515.5
2015-Mar-23 18:33N 34°36' E 134°57'  
2015-Mar-21 04:33N 34°37' E 135°02'1313.4
2015-Mar-21 03:33N 34°38' E 135°18'6 5.1
2015-Mar-21 02:28N 34°41' E 135°23'0 0.0
2015-Mar-21 01:28N 34°41' E 135°23'0 0.0
2015-Mar-21 00:28N 34°41' E 135°23'0 0.0
2015-Mar-20 23:22N 34°41' E 135°23'1 1.8
2015-Mar-20 22:33N 34°40' E 135°22'1 0.9
2015-Mar-20 21:30N 34°40' E 135°21'0 0.0
2015-Mar-20 20:30N 34°40' E 135°21'0 0.0
2015-Mar-20 19:24N 34°40' E 135°21'2 2.9
2015-Mar-20 18:33N 34°38' E 135°19'1414.5
2015-Mar-20 17:33N 34°37' E 135°01'6 0.2
2015-Mar-19 04:21N 34°36' E 134°54'810.5
2015-Mar-19 03:33N 34°36' E 135°04'1413.9
2015-Mar-19 02:33N 34°40' E 135°21'3 2.4
2015-Mar-19 01:29N 34°41' E 135°23'0 0.0
2015-Mar-19 00:29N 34°41' E 135°23'0 0.0
2015-Mar-18 23:29N 34°41' E 135°23'1 1.2
2015-Mar-18 22:34N 34°41' E 135°22'1 1.1
2015-Mar-18 21:24N 34°40' E 135°21'0 0.0
2015-Mar-18 20:24N 34°40' E 135°21'0 0.0
2015-Mar-18 19:30N 34°40' E 135°21'8 8.3
2015-Mar-18 18:33N 34°35' E 135°13'1815.7
2015-Mar-18 17:25N 34°34' E 134°52'  
Track history (hours):
 
Tides and Currents Weather Stations Pressure Air Temp Water Temp Dewpoint Dewpoint Depression Visibility Wind Speed Wind Dir Waves Ship Positions

Daihatsumaru

Last reported at 2015-Mar-27 23:33 UTC. Time now 2015-Mar-28 00:32 UTC.
Position N 34°41' E 135°23'.

Length 106 m; draft 4.5 m.

Type: Cargo ship. MMSI: 431000701.

Date/timePositionNaut miles runAvg speedWind from/ knotsBaromVisibWave heightAir tempDewpointWater temp
2015-Mar-27 23:33N 34°41' E 135°23'1 0.9
2015-Mar-27 22:33N 34°41' E 135°22'2 1.5
2015-Mar-27 21:30N 34°40' E 135°21'2 1.8
2015-Mar-27 20:34N 34°39' E 135°20'1413.7
2015-Mar-27 19:34N 34°35' E 135°04'1313.1
2015-Mar-27 18:32N 34°33' E 134°48'4 0.1
2015-Mar-26 04:15N 34°35' E 134°51'1015.0
2015-Mar-26 03:33N 34°36' E 135°04'1514.6
2015-Mar-26 02:33N 34°40' E 135°21'2 2.1
2015-Mar-26 01:23N 34°41' E 135°23'0 0.0
2015-Mar-26 00:05N 34°41' E 135°23'0 0.0
2015-Mar-25 23:29N 34°41' E 135°23'1 1.3
2015-Mar-25 22:32N 34°41' E 135°22'1 0.7
2015-Mar-25 21:18N 34°40' E 135°21'2 2.0
2015-Mar-25 20:33N 34°39' E 135°20'1414.1
2015-Mar-25 19:33N 34°36' E 135°03'1514.2
2015-Mar-25 18:31N 34°32' E 134°46'14 0.4
2015-Mar-24 04:26N 34°37' E 135°01'1213.7
2015-Mar-24 03:33N 34°37' E 135°16'7 6.7
2015-Mar-24 02:27N 34°41' E 135°23'0 0.0
2015-Mar-24 01:27N 34°41' E 135°23'0 0.0
2015-Mar-24 00:33N 34°41' E 135°23'0 0.0
2015-Mar-23 23:33N 34°41' E 135°23'1 1.4
2015-Mar-23 22:33N 34°40' E 135°22'1 0.9
2015-Mar-23 21:33N 34°40' E 135°21'0 0.0
2015-Mar-23 20:34N 34°40' E 135°21'6 5.7
2015-Mar-23 19:33N 34°36' E 135°16'1515.5
2015-Mar-23 18:33N 34°36' E 134°57'  
2015-Mar-21 04:33N 34°37' E 135°02'1313.4
2015-Mar-21 03:33N 34°38' E 135°18'6 5.1
2015-Mar-21 02:28N 34°41' E 135°23'0 0.0
2015-Mar-21 01:28N 34°41' E 135°23'0 0.0
2015-Mar-21 00:28N 34°41' E 135°23'0 0.0
2015-Mar-20 23:22N 34°41' E 135°23'1 1.8
2015-Mar-20 22:33N 34°40' E 135°22'1 0.9
2015-Mar-20 21:30N 34°40' E 135°21'0 0.0
2015-Mar-20 20:30N 34°40' E 135°21'0 0.0
2015-Mar-20 19:24N 34°40' E 135°21'2 2.9
2015-Mar-20 18:33N 34°38' E 135°19'1414.5
2015-Mar-20 17:33N 34°37' E 135°01'6 0.2
2015-Mar-19 04:21N 34°36' E 134°54'810.5
2015-Mar-19 03:33N 34°36' E 135°04'1413.9
2015-Mar-19 02:33N 34°40' E 135°21'3 2.4
2015-Mar-19 01:29N 34°41' E 135°23'0 0.0
2015-Mar-19 00:29N 34°41' E 135°23'0 0.0
2015-Mar-18 23:29N 34°41' E 135°23'1 1.2
2015-Mar-18 22:34N 34°41' E 135°22'1 1.1
2015-Mar-18 21:24N 34°40' E 135°21'0 0.0
2015-Mar-18 20:24N 34°40' E 135°21'0 0.0
2015-Mar-18 19:30N 34°40' E 135°21'8 8.3
2015-Mar-18 18:33N 34°35' E 135°13'1815.7
2015-Mar-18 17:25N 34°34' E 134°52'  

Dump ship's entire track history